createdAt,value
2023-03-17T00:01:44.761Z,7.90
2023-03-17T00:04:12.672Z,8.97
2023-03-17T00:06:40.227Z,10.00
2023-03-17T00:09:12.128Z,8.73
2023-03-17T00:11:38.553Z,7.90
2023-03-17T00:14:04.991Z,7.90
2023-03-17T00:16:36.807Z,9.00
2023-03-17T00:19:04.066Z,11.23
2023-03-17T00:21:32.972Z,6.77
2023-03-17T00:24:00.312Z,7.03
2023-03-17T00:26:28.457Z,8.87
2023-03-17T00:28:55.230Z,7.37
2023-03-17T00:31:25.124Z,12.63
2023-03-17T00:33:54.487Z,8.13
2023-03-17T00:36:24.034Z,9.17
2023-03-17T00:38:51.203Z,8.97
2023-03-17T00:41:18.391Z,12.80
2023-03-17T00:43:45.544Z,5.67
2023-03-17T00:46:27.504Z,10.20
2023-03-17T00:48:55.055Z,5.40
2023-03-17T00:51:23.252Z,10.03
2023-03-17T00:53:49.935Z,8.73
2023-03-17T00:56:19.205Z,8.07
2023-03-17T00:58:47.496Z,8.50
2023-03-17T01:01:16.052Z,6.80
2023-03-17T01:03:42.560Z,7.80
2023-03-17T01:06:12.705Z,6.83
2023-03-17T01:08:40.730Z,6.70
2023-03-17T01:11:18.585Z,8.90
2023-03-17T01:13:46.955Z,10.70
2023-03-17T01:16:15.541Z,8.13
2023-03-17T01:18:42.257Z,7.30
2023-03-17T01:21:09.094Z,7.87
2023-03-17T01:23:35.636Z,7.40
2023-03-17T01:26:02.103Z,9.50
2023-03-17T01:28:28.827Z,6.50
2023-03-17T01:30:55.518Z,7.20
2023-03-17T01:33:22.213Z,6.60
2023-03-17T01:35:50.349Z,17.20
2023-03-17T01:38:17.472Z,9.00
2023-03-17T01:40:49.692Z,7.27
2023-03-17T01:43:21.398Z,7.17
2023-03-17T01:46:06.717Z,6.47
2023-03-17T01:48:48.612Z,5.67
2023-03-17T01:51:21.337Z,9.07
2023-03-17T01:53:51.118Z,8.30
2023-03-17T01:56:18.057Z,7.33
2023-03-17T01:58:48.235Z,9.70
2023-03-17T02:01:15.151Z,7.80
2023-03-17T02:03:42.548Z,8.67
2023-03-17T02:06:09.835Z,7.93
2023-03-17T02:08:36.358Z,8.33
2023-03-17T02:11:05.010Z,6.87
2023-03-17T02:13:33.190Z,6.10
2023-03-17T02:16:00.046Z,5.50
2023-03-17T02:18:27.091Z,7.57
2023-03-17T02:20:53.466Z,7.23
2023-03-17T02:23:22.821Z,8.93
2023-03-17T02:25:50.440Z,7.33
2023-03-17T02:28:21.498Z,7.83
2023-03-17T02:30:49.000Z,8.97
2023-03-17T02:33:17.072Z,7.40
2023-03-17T02:35:43.622Z,6.17
2023-03-17T02:38:10.392Z,7.23
2023-03-17T02:40:37.004Z,5.70
2023-03-17T02:43:05.046Z,6.20
2023-03-17T02:45:31.827Z,7.23
2023-03-17T02:47:59.317Z,7.40
2023-03-17T02:50:28.951Z,6.30
2023-03-17T02:52:56.057Z,6.40
2023-03-17T02:55:22.788Z,7.73
2023-03-17T02:57:49.339Z,8.23
2023-03-17T03:00:16.145Z,6.80
2023-03-17T03:02:42.827Z,7.40
2023-03-17T03:05:10.670Z,6.60
2023-03-17T03:07:37.429Z,6.73
2023-03-17T03:10:04.330Z,4.97
2023-03-17T03:12:30.835Z,4.77
2023-03-17T03:14:57.288Z,6.20
2023-03-17T03:17:23.724Z,9.43
2023-03-17T03:19:50.433Z,5.77
2023-03-17T03:22:16.907Z,6.83
2023-03-17T03:24:43.929Z,9.07
2023-03-17T03:27:10.893Z,6.80
2023-03-17T03:29:38.220Z,6.77
2023-03-17T03:32:04.949Z,6.03
2023-03-17T03:34:31.825Z,11.40
2023-03-17T03:36:58.291Z,6.40
2023-03-17T03:39:24.780Z,8.50
2023-03-17T03:41:51.237Z,10.70
2023-03-17T03:44:17.726Z,7.90
2023-03-17T03:46:44.231Z,6.37
2023-03-17T03:49:10.737Z,6.33
2023-03-17T03:51:37.207Z,5.53
2023-03-17T03:54:03.639Z,9.60
2023-03-17T03:56:30.222Z,7.10
2023-03-17T03:58:57.149Z,7.53
2023-03-17T04:01:24.529Z,5.13
2023-03-17T04:03:51.239Z,7.70
2023-03-17T04:06:17.824Z,6.57
2023-03-17T04:08:44.338Z,4.43
2023-03-17T04:11:10.795Z,5.80
2023-03-17T04:13:38.374Z,5.83
2023-03-17T04:16:05.190Z,5.80
2023-03-17T04:18:31.753Z,7.80
2023-03-17T04:20:58.330Z,13.00
2023-03-17T04:23:24.848Z,5.97
2023-03-17T04:25:52.791Z,6.80
2023-03-17T04:28:20.469Z,7.20
2023-03-17T04:30:47.053Z,5.87
2023-03-17T04:33:13.757Z,5.53
2023-03-17T04:35:40.705Z,5.80
2023-03-17T04:38:07.217Z,7.13
2023-03-17T04:40:33.705Z,6.43
2023-03-17T04:43:01.900Z,5.00
2023-03-17T04:45:29.867Z,6.23
2023-03-17T04:47:56.341Z,7.17
2023-03-17T04:50:22.831Z,5.90
2023-03-17T04:52:49.314Z,6.03
2023-03-17T04:55:16.460Z,5.83
2023-03-17T04:57:44.225Z,6.60
2023-03-17T05:00:12.704Z,7.10
2023-03-17T05:02:39.310Z,5.50
2023-03-17T05:05:06.140Z,9.07
2023-03-17T05:07:34.127Z,5.63
2023-03-17T05:10:00.819Z,6.07
2023-03-17T05:12:27.817Z,7.50
2023-03-17T05:14:54.257Z,9.10
2023-03-17T05:17:20.721Z,6.23
2023-03-17T05:19:47.417Z,6.23
2023-03-17T05:22:13.871Z,4.73
2023-03-17T05:24:40.305Z,6.73
2023-03-17T05:27:06.792Z,5.43
2023-03-17T05:29:33.203Z,7.10
2023-03-17T05:31:59.845Z,6.83
2023-03-17T05:34:26.983Z,8.07
2023-03-17T05:36:53.585Z,5.00
2023-03-17T05:39:20.007Z,6.57
2023-03-17T05:41:47.026Z,4.53
2023-03-17T05:44:13.543Z,15.17
2023-03-17T05:46:40.629Z,6.87
2023-03-17T05:49:07.577Z,8.30
2023-03-17T05:51:36.768Z,6.43
2023-03-17T05:54:03.530Z,6.50
2023-03-17T05:56:33.470Z,8.33
2023-03-17T05:59:01.592Z,8.20
2023-03-17T06:01:29.204Z,5.53
2023-03-17T06:03:56.107Z,5.03
2023-03-17T06:06:24.513Z,6.10
2023-03-17T06:08:51.600Z,9.33
2023-03-17T06:11:19.888Z,8.53
2023-03-17T06:13:46.897Z,6.67
2023-03-17T06:16:13.709Z,12.17
2023-03-17T06:18:40.537Z,6.93
2023-03-17T06:21:07.232Z,4.57
2023-03-17T06:23:33.925Z,9.30
2023-03-17T06:26:00.533Z,11.60
2023-03-17T06:28:26.977Z,6.33
2023-03-17T06:30:53.484Z,4.13
2023-03-17T06:33:20.030Z,7.67
2023-03-17T06:35:46.719Z,6.17
2023-03-17T06:38:13.518Z,10.60
2023-03-17T06:40:40.236Z,3.90
2023-03-17T06:43:07.492Z,4.67
2023-03-17T06:45:34.241Z,4.00
2023-03-17T06:48:01.624Z,3.40
2023-03-17T06:50:28.315Z,4.30
2023-03-17T06:52:54.767Z,7.50
2023-03-17T06:55:21.544Z,6.93
2023-03-17T06:57:50.512Z,4.83
2023-03-17T07:00:18.505Z,5.70
2023-03-17T07:02:44.947Z,6.47
2023-03-17T07:05:12.582Z,4.37
2023-03-17T07:07:39.500Z,8.13
2023-03-17T07:10:06.968Z,7.30
2023-03-17T07:12:33.726Z,8.03
2023-03-17T07:15:01.318Z,4.37
2023-03-17T07:17:28.069Z,5.70
2023-03-17T07:19:54.532Z,4.67
2023-03-17T07:22:21.036Z,4.57
2023-03-17T07:24:49.036Z,4.93
2023-03-17T07:27:20.834Z,7.00
2023-03-17T07:29:49.147Z,6.60
2023-03-17T07:32:15.592Z,3.43
2023-03-17T07:34:42.182Z,4.30
2023-03-17T07:37:10.204Z,5.20
2023-03-17T07:39:36.684Z,5.80
2023-03-17T07:42:03.205Z,10.90
2023-03-17T07:44:30.429Z,9.60
2023-03-17T07:46:56.906Z,10.10
2023-03-17T07:49:40.073Z,6.90
2023-03-17T07:52:11.704Z,5.03
2023-03-17T07:54:42.206Z,5.87
2023-03-17T07:57:09.372Z,6.17
2023-03-17T07:59:35.915Z,5.67
2023-03-17T08:02:02.445Z,5.83
2023-03-17T08:04:29.177Z,6.60
2023-03-17T08:06:56.999Z,4.93
2023-03-17T08:09:23.693Z,9.20
2023-03-17T08:11:50.577Z,4.20
2023-03-17T08:14:17.058Z,11.70
2023-03-17T08:16:43.612Z,7.47
2023-03-17T08:19:11.008Z,6.87
2023-03-17T08:21:37.664Z,6.93
2023-03-17T08:24:05.196Z,8.93
2023-03-17T08:26:32.214Z,6.30
2023-03-17T08:28:58.782Z,7.63
2023-03-17T08:31:25.300Z,12.03
2023-03-17T08:33:54.107Z,5.10
2023-03-17T08:36:21.332Z,6.40
2023-03-17T08:38:48.722Z,7.17
2023-03-17T08:41:21.209Z,5.80
2023-03-17T08:43:48.168Z,6.23
2023-03-17T08:46:20.752Z,11.23
2023-03-17T08:48:49.306Z,7.63
2023-03-17T08:51:18.586Z,6.90
2023-03-17T08:53:46.393Z,13.43
2023-03-17T08:56:14.037Z,6.70
2023-03-17T08:58:42.504Z,7.17
2023-03-17T09:01:13.596Z,5.63
2023-03-17T09:03:40.806Z,8.40
2023-03-17T09:06:09.406Z,9.60
2023-03-17T09:08:39.779Z,5.17
2023-03-17T09:11:08.385Z,3.93
2023-03-17T09:13:37.849Z,5.97
2023-03-17T09:16:05.715Z,4.60
2023-03-17T09:18:33.045Z,6.63
2023-03-17T09:20:59.662Z,4.33
2023-03-17T09:23:26.218Z,5.63
2023-03-17T09:25:52.738Z,7.40
2023-03-17T09:28:19.275Z,7.07
2023-03-17T09:30:46.008Z,9.27
2023-03-17T09:33:13.903Z,10.23
2023-03-17T09:35:41.250Z,4.00
2023-03-17T09:38:09.481Z,8.90
2023-03-17T09:40:46.681Z,6.17
2023-03-17T09:43:20.275Z,3.80
2023-03-17T09:45:47.599Z,4.33
2023-03-17T09:48:24.094Z,4.10
2023-03-17T09:51:14.245Z,8.80
2023-03-17T09:53:48.608Z,8.80
2023-03-17T09:56:18.770Z,6.53
2023-03-17T09:59:01.077Z,6.87
2023-03-17T10:01:28.049Z,3.80
2023-03-17T10:03:54.680Z,5.50
2023-03-17T10:06:38.779Z,5.43
2023-03-17T10:09:17.123Z,5.93
2023-03-17T10:11:47.725Z,4.80
2023-03-17T10:15:00.838Z,7.43
2023-03-17T10:17:39.803Z,8.83
2023-03-17T10:20:15.783Z,8.30
2023-03-17T10:22:48.301Z,8.87
2023-03-17T10:25:21.903Z,4.50
2023-03-17T10:27:57.194Z,10.40
2023-03-17T10:30:24.305Z,7.03
2023-03-17T10:32:52.450Z,4.20
2023-03-17T10:35:20.188Z,11.20
2023-03-17T10:37:47.591Z,4.73
2023-03-17T10:40:30.320Z,2.63
2023-03-17T10:43:07.911Z,5.87
2023-03-17T10:45:40.933Z,7.67
2023-03-17T10:48:09.614Z,4.30
2023-03-17T10:50:38.064Z,4.20
2023-03-17T10:53:10.783Z,3.27
2023-03-17T10:55:44.646Z,5.90
2023-03-17T10:58:15.956Z,4.53
2023-03-17T11:01:15.066Z,4.03
2023-03-17T11:03:41.845Z,10.70
2023-03-17T11:06:10.398Z,3.60
2023-03-17T11:08:50.061Z,5.73
2023-03-17T11:11:33.159Z,2.07
2023-03-17T11:14:13.360Z,5.20
2023-03-17T11:17:04.289Z,5.17
2023-03-17T11:19:52.870Z,4.40
2023-03-17T11:22:40.039Z,5.93
2023-03-17T11:25:19.348Z,3.73
2023-03-17T11:27:56.702Z,4.33
2023-03-17T11:30:36.851Z,2.80
2023-03-17T11:33:28.105Z,2.50
2023-03-17T11:36:01.617Z,6.73
2023-03-17T11:38:30.826Z,3.03
2023-03-17T11:41:11.290Z,3.70
2023-03-17T11:44:03.087Z,3.50
2023-03-17T11:46:37.116Z,3.63
2023-03-17T11:49:32.541Z,3.20
2023-03-17T11:52:28.614Z,4.40
2023-03-17T11:55:14.234Z,5.03
2023-03-17T11:57:47.312Z,4.80
2023-03-17T12:00:20.558Z,3.27
2023-03-17T12:02:56.318Z,6.10
2023-03-17T12:05:26.123Z,2.83
2023-03-17T12:07:58.431Z,3.07
2023-03-17T12:10:41.721Z,4.10
2023-03-17T12:13:15.362Z,3.60
2023-03-17T12:15:51.124Z,5.00
2023-03-17T12:18:32.863Z,5.10
2023-03-17T12:21:07.578Z,4.40
2023-03-17T12:23:45.214Z,3.63
2023-03-17T12:26:25.637Z,5.50
2023-03-17T12:29:11.571Z,3.30
2023-03-17T12:31:44.540Z,2.10
2023-03-17T12:34:20.978Z,3.97
2023-03-17T12:36:48.843Z,3.40
2023-03-17T12:39:24.906Z,5.77
2023-03-17T12:42:21.138Z,6.87
2023-03-17T12:44:50.446Z,5.03
2023-03-17T12:48:02.991Z,4.10
2023-03-17T12:51:07.636Z,5.10
2023-03-17T12:53:37.813Z,3.23
2023-03-17T12:56:27.499Z,4.93
2023-03-17T12:59:09.146Z,5.10
2023-03-17T13:02:23.238Z,3.37
2023-03-17T13:05:00.823Z,3.93
2023-03-17T13:07:52.641Z,2.97
2023-03-17T13:10:39.815Z,3.43
2023-03-17T13:13:12.975Z,2.77
2023-03-17T13:15:40.823Z,3.43
2023-03-17T13:18:16.440Z,2.67
2023-03-17T13:20:59.339Z,5.57
2023-03-17T13:23:41.567Z,3.80
2023-03-17T13:26:12.851Z,4.50
2023-03-17T13:28:40.692Z,4.50
2023-03-17T13:31:16.400Z,3.57
2023-03-17T13:33:52.050Z,3.30
2023-03-17T13:36:45.734Z,2.40
2023-03-17T13:39:25.577Z,7.80
2023-03-17T13:42:11.847Z,4.27
2023-03-17T13:44:58.143Z,3.87
2023-03-17T13:47:38.144Z,4.17
2023-03-17T13:50:13.817Z,6.50
2023-03-17T13:52:48.402Z,3.70
2023-03-17T13:55:17.941Z,5.07
2023-03-17T13:57:53.916Z,4.30
2023-03-17T14:00:26.987Z,6.03
2023-03-17T14:03:03.718Z,5.87
2023-03-17T14:05:37.779Z,5.77
2023-03-17T14:08:21.656Z,5.10
2023-03-17T14:10:56.550Z,4.03
2023-03-17T14:13:31.740Z,3.20
2023-03-17T14:16:12.355Z,4.07
2023-03-17T14:18:42.227Z,6.93
2023-03-17T14:21:24.022Z,4.53
2023-03-17T14:23:59.010Z,6.50
2023-03-17T14:26:28.862Z,4.37
2023-03-17T14:28:58.521Z,4.20
2023-03-17T14:31:28.014Z,3.93
2023-03-17T14:33:56.766Z,6.10
2023-03-17T14:36:24.419Z,5.00
2023-03-17T14:38:53.296Z,8.80
2023-03-17T14:41:25.355Z,4.27
2023-03-17T14:43:57.128Z,6.00
2023-03-17T14:46:27.381Z,4.87
2023-03-17T14:49:01.359Z,4.07
2023-03-17T14:51:33.611Z,7.20
2023-03-17T14:54:03.985Z,6.07
2023-03-17T14:56:38.861Z,7.23
2023-03-17T14:59:08.449Z,5.87
2023-03-17T15:01:37.646Z,4.97
2023-03-17T15:04:12.174Z,7.50
2023-03-17T15:06:50.984Z,10.40
2023-03-17T15:09:18.912Z,19.60
2023-03-17T15:11:46.842Z,13.33
2023-03-17T15:14:20.995Z,6.10
2023-03-17T15:16:51.837Z,5.27
2023-03-17T15:19:22.662Z,6.80
2023-03-17T15:21:49.741Z,5.20
2023-03-17T15:24:25.421Z,9.23
2023-03-17T15:27:00.280Z,3.93
2023-03-17T15:29:28.749Z,4.33
2023-03-17T15:32:09.971Z,4.53
2023-03-17T15:34:36.455Z,4.70
2023-03-17T15:37:02.941Z,5.60
2023-03-17T15:39:29.406Z,4.57
2023-03-17T15:41:55.989Z,6.40
2023-03-17T15:44:22.406Z,6.83
2023-03-17T15:46:48.930Z,3.93
2023-03-17T15:49:15.350Z,4.00
2023-03-17T15:51:41.847Z,5.87
2023-03-17T15:54:13.654Z,5.07
2023-03-17T15:56:40.566Z,5.50
2023-03-17T15:59:07.018Z,9.13
2023-03-17T16:01:33.547Z,6.10
2023-03-17T16:04:00.000Z,6.93
2023-03-17T16:06:26.619Z,6.10
2023-03-17T16:08:53.184Z,3.80
2023-03-17T16:11:28.144Z,5.53
2023-03-17T16:13:56.300Z,5.27
2023-03-17T16:16:31.730Z,5.00
2023-03-17T16:18:58.455Z,9.40
2023-03-17T16:21:26.535Z,5.77
2023-03-17T16:23:53.231Z,6.80
2023-03-17T16:26:19.677Z,4.00
2023-03-17T16:28:47.719Z,3.53
2023-03-17T16:31:31.361Z,4.57
2023-03-17T16:33:57.887Z,6.10
2023-03-17T16:36:25.664Z,5.50
2023-03-17T16:38:53.514Z,6.03
2023-03-17T16:41:27.154Z,5.60
2023-03-17T16:43:58.859Z,6.40
2023-03-17T16:46:26.811Z,6.43
2023-03-17T16:48:53.431Z,5.43
2023-03-17T16:51:20.092Z,4.80
2023-03-17T16:53:47.092Z,5.10
2023-03-17T16:56:17.612Z,3.67
2023-03-17T16:58:46.721Z,5.20
2023-03-17T17:01:17.287Z,2.60
2023-03-17T17:03:44.029Z,3.47
2023-03-17T17:06:14.286Z,7.03
2023-03-17T17:08:45.351Z,4.27
2023-03-17T17:11:13.583Z,4.33
2023-03-17T17:13:41.357Z,6.13
2023-03-17T17:16:16.744Z,4.40
2023-03-17T17:18:43.247Z,3.77
2023-03-17T17:21:09.722Z,5.60
2023-03-17T17:23:36.168Z,4.10
2023-03-17T17:26:02.599Z,6.13
2023-03-17T17:28:29.098Z,6.83
2023-03-17T17:30:55.633Z,4.20
2023-03-17T17:33:22.119Z,5.80
2023-03-17T17:35:49.815Z,5.13
2023-03-17T17:38:27.905Z,3.80
2023-03-17T17:40:56.705Z,6.87
2023-03-17T17:43:24.423Z,3.80
2023-03-17T17:45:51.903Z,4.97
2023-03-17T17:48:22.374Z,6.77
2023-03-17T17:50:50.528Z,4.43
2023-03-17T17:53:18.010Z,4.20
2023-03-17T17:55:46.295Z,6.77
2023-03-17T17:58:17.525Z,5.87
2023-03-17T18:00:44.063Z,7.00
2023-03-17T18:03:10.971Z,5.03
2023-03-17T18:05:37.596Z,5.77
2023-03-17T18:08:04.592Z,13.40
2023-03-17T18:10:31.879Z,8.63
2023-03-17T18:12:58.657Z,6.57
2023-03-17T18:15:27.213Z,9.70
2023-03-17T18:17:54.297Z,11.70
2023-03-17T18:20:22.734Z,12.53
2023-03-17T18:22:50.237Z,19.17
2023-03-17T18:25:17.395Z,6.20
2023-03-17T18:27:44.245Z,8.13
2023-03-17T18:30:14.399Z,7.80
2023-03-17T18:32:43.000Z,5.40
2023-03-17T18:35:13.209Z,6.90
2023-03-17T18:37:39.859Z,5.97
2023-03-17T18:40:14.607Z,7.10
2023-03-17T18:42:41.925Z,12.53
2023-03-17T18:45:09.982Z,7.90
2023-03-17T18:47:36.626Z,10.47
2023-03-17T18:50:04.018Z,6.57
2023-03-17T18:52:32.031Z,6.37
2023-03-17T18:54:59.068Z,6.10
2023-03-17T18:57:27.480Z,7.67
2023-03-17T18:59:55.139Z,7.23
2023-03-17T19:02:21.646Z,7.80
2023-03-17T19:04:48.180Z,9.93
2023-03-17T19:07:14.998Z,8.47
2023-03-17T19:09:41.451Z,10.50
2023-03-17T19:12:08.361Z,17.10
2023-03-17T19:14:36.937Z,12.57
2023-03-17T19:17:04.424Z,20.17
2023-03-17T19:19:31.974Z,13.40
2023-03-17T19:21:58.522Z,17.70
2023-03-17T19:24:25.031Z,16.10
2023-03-17T19:26:51.561Z,17.03
2023-03-17T19:29:18.343Z,24.87
2023-03-17T19:31:46.150Z,22.20
2023-03-17T19:34:15.203Z,22.83
2023-03-17T19:36:43.673Z,20.97
2023-03-17T19:39:13.818Z,20.90
2023-03-17T19:41:40.780Z,22.13
2023-03-17T19:44:07.637Z,26.77
2023-03-17T19:46:36.525Z,26.60
2023-03-17T19:49:04.629Z,28.50
2023-03-17T19:51:32.962Z,28.10
2023-03-17T19:54:00.163Z,20.33
2023-03-17T19:56:27.867Z,20.60
2023-03-17T19:58:55.433Z,23.17
2023-03-17T20:01:22.960Z,26.87
2023-03-17T20:03:49.593Z,20.43
2023-03-17T20:06:16.798Z,22.67
2023-03-17T20:08:43.977Z,21.20
2023-03-17T20:11:12.076Z,24.07
2023-03-17T20:13:40.189Z,21.30
2023-03-17T20:16:08.013Z,25.70
2023-03-17T20:18:38.724Z,22.10
2023-03-17T20:21:06.588Z,22.70
2023-03-17T20:23:33.499Z,22.53
2023-03-17T20:26:00.013Z,24.83
2023-03-17T20:28:27.740Z,24.97
2023-03-17T20:31:00.437Z,30.30
2023-03-17T20:33:27.716Z,20.53
2023-03-17T20:35:54.267Z,21.60
2023-03-17T20:38:21.247Z,26.30
2023-03-17T20:40:47.698Z,34.23
2023-03-17T20:43:14.190Z,24.10
2023-03-17T20:45:41.082Z,21.93
2023-03-17T20:48:10.535Z,24.37
2023-03-17T20:50:38.508Z,25.20
2023-03-17T20:53:08.705Z,26.70
2023-03-17T20:55:36.347Z,28.83
2023-03-17T20:58:06.143Z,24.00
2023-03-17T21:00:33.023Z,28.30
2023-03-17T21:03:00.420Z,18.00
2023-03-17T21:05:27.718Z,21.60
2023-03-17T21:07:54.491Z,25.83
2023-03-17T21:10:21.059Z,19.63
2023-03-17T21:12:47.586Z,24.47
2023-03-17T21:15:15.096Z,19.43
2023-03-17T21:17:42.280Z,24.27
2023-03-17T21:20:11.881Z,34.87
2023-03-17T21:22:39.907Z,23.87
2023-03-17T21:25:08.751Z,25.23
2023-03-17T21:27:39.490Z,20.13
2023-03-17T21:30:09.615Z,31.23
2023-03-17T21:32:36.657Z,20.97
2023-03-17T21:35:04.006Z,29.17
2023-03-17T21:37:30.682Z,24.00
2023-03-17T21:39:58.013Z,29.13
2023-03-17T21:42:24.725Z,20.17
2023-03-17T21:44:52.217Z,26.57
2023-03-17T21:47:19.488Z,20.43
2023-03-17T21:49:46.281Z,17.03
2023-03-17T21:52:14.900Z,22.53
2023-03-17T21:54:41.882Z,18.97
2023-03-17T21:57:12.061Z,16.00
2023-03-17T21:59:39.944Z,26.47
2023-03-17T22:02:06.491Z,20.83
2023-03-17T22:04:33.004Z,19.00
2023-03-17T22:06:59.487Z,23.67
2023-03-17T22:09:26.290Z,22.40
2023-03-17T22:11:53.013Z,20.63
2023-03-17T22:14:20.581Z,17.70
2023-03-17T22:16:48.721Z,19.23
2023-03-17T22:19:17.087Z,25.13
2023-03-17T22:21:44.226Z,20.27
2023-03-17T22:24:11.237Z,22.33
2023-03-17T22:26:37.832Z,19.03
2023-03-17T22:29:04.438Z,19.97
2023-03-17T22:31:31.139Z,19.97
2023-03-17T22:33:59.302Z,23.77
2023-03-17T22:36:26.689Z,16.50
2023-03-17T22:38:53.446Z,24.37
2023-03-17T22:41:22.744Z,24.80
2023-03-17T22:43:50.061Z,19.10
2023-03-17T22:46:16.862Z,20.00
2023-03-17T22:48:44.232Z,18.47
2023-03-17T22:51:14.454Z,15.63
2023-03-17T22:53:40.940Z,23.40
2023-03-17T22:56:08.628Z,18.30
2023-03-17T22:58:35.819Z,19.63
2023-03-17T23:01:02.655Z,17.13
2023-03-17T23:03:29.890Z,12.63
2023-03-17T23:05:59.522Z,14.40
2023-03-17T23:08:29.226Z,18.93
2023-03-17T23:10:56.166Z,11.53
2023-03-17T23:13:24.112Z,18.50
2023-03-17T23:15:50.560Z,12.10
2023-03-17T23:18:17.254Z,10.83
2023-03-17T23:20:43.806Z,11.90
2023-03-17T23:23:11.653Z,12.00
2023-03-17T23:25:38.598Z,15.80
2023-03-17T23:28:07.572Z,15.40
2023-03-17T23:30:35.747Z,7.30
2023-03-17T23:33:04.918Z,8.40
2023-03-17T23:35:32.175Z,11.27
2023-03-17T23:37:59.652Z,10.97
2023-03-17T23:40:26.326Z,13.10
2023-03-17T23:42:55.047Z,8.63
2023-03-17T23:45:23.140Z,9.60
2023-03-17T23:47:51.585Z,11.07
2023-03-17T23:50:19.510Z,12.03
2023-03-17T23:52:47.134Z,10.67
2023-03-17T23:55:14.751Z,9.73
2023-03-17T23:57:41.545Z,9.90
